AirNav   Duncan Aviation - Near you to keep you flying
 
 1503 users online  

2MO9 Runway Ranch Airport
Kansas City, Missouri, USA

GOING TO KANSAS CITY?


FAA INFORMATION EFFECTIVE 03 NOVEMBER 2022

Location

FAA Identifier: 2MO9
Lat/Long: 38-57-00.0240N 094-27-00.8270W
38-57.000400N 094-27.013783W
38.9500067,-94.4502297
(estimated)
Elevation: 929 ft. / 283 m (estimated)
Variation: 05E (1985)
From city: 10 miles SE of KANSAS CITY, MO
Time zone: UTC -6 (UTC -5 during Daylight Saving Time)
Zip code: 64134

Airport Operations

Airport use: Private use. Permission required prior to landing
Activation date: 01/1961
Control tower: no
ARTCC: KANSAS CITY CENTER
FSS: COLUMBIA FLIGHT SERVICE STATION
Attendance: DAWN-DUSK
Wind indicator: no
Segmented circle: no

Airport Communications

WX ASOS at LXT (4 nm E): 124.175 (816-347-9807)
WX ASOS at MKC (12 nm NW): 120.75 (816-329-2843)
WX ASOS at OJC (15 nm SW): PHONE 913-780-6969

Nearby radio navigation aids

VOR radial/distance  VOR name  Freq  Var
ANXr233/17.3NAPOLEON VORTAC114.0007E
MCIr141/24.1KANSAS CITY VORTAC113.2505E

Airport Services

Airframe service: NONE
Powerplant service: NONE

Runway Information

Runway N/S

Dimensions: 1320 x 100 ft. / 402 x 30 m
Surface: turf
RUNWAY N  RUNWAY S
Traffic pattern: leftleft
Obstructions: noneramp

Airport Ownership and Management from official FAA records

Ownership: Privately-owned
Owner: GLORIA J. MC REYNOLDS
P.O. BOX 446
CAMDENTON, MO 65020
Phone 314-346-7772
Manager: JERRY LEMPE
9778 WOODSON
KANSAS CITY, MO 64134
Phone 816-761-9203

Airport Operational Statistics

Aircraft based on the field: 6
Single engine airplanes: 6
    

Additional Remarks

FOR CD CTC KANSAS CITY APCH AT 816-329-2710.

Instrument Procedures

There are no published instrument procedures at 2MO9.

Some nearby airports with instrument procedures:

KLXT - Lee's Summit Municipal Airport (4 nm E)
3GV - East Kansas City Airport (12 nm E)
KMKC - Charles B Wheeler Downtown Airport (12 nm NW)
KOJC - Johnson County Executive Airport (15 nm SW)
KLRY - Lawrence Smith Memorial Airport (21 nm S)
 
Loc | Ops | Rwys | IFR | FBO | Links
Com | Nav | Svcs | Stats | Notes
Area around 2MO9 (Runway Ranch Airport)
 
Road maps at: MapQuest Bing Google
 
Aerial photo
No photo
 
Sectional chart

 
Airport distance calculator
Flying to Runway Ranch Airport? Find the distance to fly.

From to 2MO9

Sunrise and sunset
Times for 29-Nov-2022
 Local
(UTC-6)
 Zulu
(UTC)
Morning civil twilight06:4712:47
Sunrise07:1713:17
Sunset16:5622:56
Evening civil twilight17:2523:25

Current date and time
Zulu (UTC)  29-Nov-2022 16:58:34
Local (UTC-6)  29-Nov-2022 10:58:34
 
METAR
KLXT 
4nm E 
291653Z AUTO 23021G33KT 10SM FEW034 15/07 A2948 RMK AO2 PK WND 23037/1643 SLP981 T01500067
KGVW 
9nm SW 
291620Z AUTO 15014KT 1 1/2SM BR FEW020 SCT030 BKN050 22/22 A2988 RMK A01
KMKC 
12nm NW 
291654Z 25022G32KT 10SM FEW037 14/05 A2948 RMK AO2 PK WND 22037/1556 RAE26 SLP981 P0000 T01440050
KOJC 
15nm SW 
291653Z 24019G30KT 10SM CLR 13/04 A2950 RMK AO2 PK WND 24036/1554 SLP988 T01330044
TAF
KMKC 
12nm NW 
291130Z 2912/3012 18014G23KT P6SM BKN160 FM291600 24013G25KT P6SM FEW170 FM291830 29016G25KT P6SM BKN025 FM300100 32015G23KT P6SM SCT050
NOTAMs
Click for the latest NOTAMs
NOTAMs are issued by the DoD/FAA and will open in a separate window not controlled by AirNav.

 

 
 

Would you like to see your business listed on this page?

 If your business provides an interesting product or service to pilots, flight crews, aircraft, or users of the Runway Ranch Airport, you should consider listing it here.  To start the listing process, click on the button below
 
Add a business
 

Other Pages about Runway Ranch Airport

Update a link
 
Copyright © AirNav, LLC. All rights reserved. Privacy Policy  Contact